Time;durP1;ratioP1;P1;durP2;ratioP2;P2;SDS_P1;SDS_P2;PMS_P1;PMS_P2;Temp;Humidity;BMP_temperature;BMP_pressure;BME280_temperature;BME280_humidity;BME280_pressure;Samples;Min_cycle;Max_cycle;Signal;HPM_P1;HPM_P2
2024/04/06 00:01:22;;;;;;;4.28;0.90;;;14.30;99.90;;;;;;5055632;28;20041;-89
2024/04/06 00:03:49;;;;;;;4.60;0.85;;;14.30;99.90;;;;;;5039826;28;20124;-88
2024/04/06 00:06:14;;;;;;;5.72;0.98;;;14.40;99.90;;;;;;5043279;28;20025;-88
2024/04/06 00:08:41;;;;;;;4.88;0.98;;;14.40;99.90;;;;;;5054955;28;20048;-89
2024/04/06 00:11:08;;;;;;;4.32;0.85;;;14.40;99.90;;;;;;5045071;28;20025;-89
2024/04/06 00:13:33;;;;;;;7.13;0.90;;;14.40;99.90;;;;;;5031236;28;20388;-90
2024/04/06 00:15:59;;;;;;;4.53;1.23;;;14.30;99.90;;;;;;5054890;28;20021;-88
2024/04/06 00:18:24;;;;;;;4.18;1.23;;;14.40;99.90;;;;;;5055059;28;20098;-88
2024/04/06 00:20:50;;;;;;;3.75;0.98;;;14.40;99.90;;;;;;5038710;28;20030;-90
2024/04/06 00:23:16;;;;;;;2.83;0.88;;;14.40;99.90;;;;;;5055024;28;20048;-89
2024/04/06 00:25:41;;;;;;;6.50;0.90;;;14.30;99.90;;;;;;5046334;28;20048;-89
2024/04/06 00:28:07;;;;;;;3.67;0.80;;;14.30;99.90;;;;;;5034835;28;20083;-89
2024/04/06 00:30:33;;;;;;;3.97;0.80;;;14.30;99.90;;;;;;5050841;28;20028;-89
2024/04/06 00:32:59;;;;;;;5.65;0.80;;;14.20;99.90;;;;;;5051648;28;20124;-89
2024/04/06 00:35:24;;;;;;;2.30;0.75;;;14.20;99.90;;;;;;5034729;28;20057;-89
2024/04/06 00:37:50;;;;;;;4.45;0.88;;;14.20;99.90;;;;;;5034533;28;20033;-88
2024/04/06 00:40:17;;;;;;;3.70;0.73;;;14.20;99.90;;;;;;5034908;28;20483;-89
2024/04/06 00:42:43;;;;;;;2.60;0.88;;;14.20;99.90;;;;;;5034177;28;20036;-87
2024/04/06 00:45:08;;;;;;;3.67;0.85;;;14.10;99.90;;;;;;5038932;28;20384;-88
2024/04/06 00:47:35;;;;;;;3.47;0.77;;;14.20;99.90;;;;;;5037081;28;20021;-89
2024/04/06 00:50:01;;;;;;;5.60;0.90;;;14.20;99.90;;;;;;5043223;28;20647;-88
2024/04/06 00:52:26;;;;;;;4.57;0.90;;;14.30;99.90;;;;;;5034457;28;20022;-89
2024/04/06 00:54:52;;;;;;;6.63;1.38;;;14.30;99.90;;;;;;5037073;28;20059;-89
2024/04/06 00:57:18;;;;;;;3.33;0.70;;;14.30;99.90;;;;;;5054382;28;20036;-89
2024/04/06 00:59:44;;;;;;;2.13;0.63;;;14.40;99.90;;;;;;5054411;28;20107;-88
2024/04/06 01:02:09;;;;;;;4.97;0.80;;;14.40;99.90;;;;;;5051392;28;20124;-89
2024/04/06 01:04:35;;;;;;;2.88;0.80;;;14.40;99.90;;;;;;5034275;28;20029;-89
2024/04/06 01:07:01;;;;;;;4.75;0.90;;;14.40;99.90;;;;;;5046144;28;20036;-88
2024/04/06 01:09:26;;;;;;;2.22;0.90;;;14.40;99.90;;;;;;5054171;28;20053;-88
2024/04/06 01:11:52;;;;;;;2.63;0.70;;;14.40;99.90;;;;;;5053529;28;20033;-87
2024/04/06 01:14:18;;;;;;;3.53;0.82;;;14.40;99.90;;;;;;5034142;28;20033;-89
2024/04/06 01:16:43;;;;;;;3.78;0.90;;;14.40;99.90;;;;;;5034581;28;20103;-88
2024/04/06 01:19:09;;;;;;;2.47;0.73;;;14.40;99.90;;;;;;5043222;28;20109;-88
2024/04/06 01:21:35;;;;;;;3.42;0.80;;;14.40;99.90;;;;;;5054059;28;20477;-89
2024/04/06 01:24:23;;;;;;;2.42;0.70;;;14.40;99.90;;;;;;5043467;28;20033;-89
2024/04/06 01:26:49;;;;;;;5.30;1.10;;;14.40;99.90;;;;;;5046111;28;20493;-89
2024/04/06 01:29:15;;;;;;;3.33;1.17;;;14.40;99.90;;;;;;5033808;28;20100;-89
2024/04/06 01:31:41;;;;;;;2.80;0.88;;;14.40;99.90;;;;;;5016442;28;20099;-90
2024/04/06 01:34:10;;;;;;;3.42;1.00;;;14.40;99.90;;;;;;5033573;28;20476;-89
2024/04/06 01:36:36;;;;;;;4.25;0.80;;;14.50;99.90;;;;;;5053928;28;20119;-89
2024/04/06 01:39:02;;;;;;;5.90;1.20;;;14.40;99.90;;;;;;5052987;28;20028;-88
2024/04/06 01:41:28;;;;;;;3.10;0.90;;;14.40;99.90;;;;;;5035638;28;20024;-88
2024/04/06 01:43:54;;;;;;;4.38;1.30;;;14.40;99.90;;;;;;5031951;28;20033;-89
2024/04/06 01:46:19;;;;;;;4.18;0.95;;;14.30;99.90;;;;;;5037020;28;20029;-89
2024/04/06 01:48:46;;;;;;;2.83;1.10;;;14.40;99.90;;;;;;5053108;28;20024;-89
2024/04/06 01:51:11;;;;;;;5.47;1.25;;;14.30;99.90;;;;;;5053173;28;20103;-88
2024/04/06 01:53:37;;;;;;;4.53;1.92;;;14.30;99.90;;;;;;5039882;28;20025;-89
2024/04/06 01:56:02;;;;;;;6.93;1.38;;;14.30;99.90;;;;;;5034400;28;20033;-89
2024/04/06 01:58:28;;;;;;;3.90;1.08;;;14.30;99.90;;;;;;5037557;28;20104;-88
2024/04/06 02:00:54;;;;;;;3.90;1.25;;;14.30;99.90;;;;;;5032956;28;20440;-89
2024/04/06 02:03:19;;;;;;;5.15;1.75;;;14.30;99.90;;;;;;5033289;28;20026;-89
2024/04/06 02:05:45;;;;;;;5.15;1.50;;;14.20;99.90;;;;;;5047290;28;20059;-88
2024/04/06 02:08:10;;;;;;;6.45;1.75;;;14.20;99.90;;;;;;5016232;28;20092;-89
2024/04/06 02:10:36;;;;;;;4.90;1.30;;;14.20;99.90;;;;;;5033654;28;20025;-88
2024/04/06 02:13:01;;;;;;;5.55;1.65;;;14.20;99.90;;;;;;5032702;28;20481;-88
2024/04/06 02:15:27;;;;;;;5.70;1.30;;;14.10;99.90;;;;;;5043270;28;20603;-89
2024/04/06 02:17:53;;;;;;;6.40;1.60;;;14.10;99.90;;;;;;5052392;28;20381;-89
2024/04/06 02:20:19;;;;;;;4.50;1.30;;;14.10;99.90;;;;;;5052822;28;20127;-90
2024/04/06 02:22:44;;;;;;;5.38;1.50;;;14.00;99.90;;;;;;5051585;28;20132;-88
2024/04/06 02:25:10;;;;;;;3.40;1.88;;;14.00;99.90;;;;;;5052661;28;20029;-89
2024/04/06 02:27:35;;;;;;;6.63;1.70;;;13.90;99.90;;;;;;5042107;28;20570;-89
2024/04/06 02:30:02;;;;;;;4.30;1.35;;;13.90;99.90;;;;;;5032388;28;20030;-89
2024/04/06 02:32:28;;;;;;;4.00;1.58;;;13.90;99.90;;;;;;5032788;28;20112;-88
2024/04/06 02:34:54;;;;;;;3.60;1.50;;;13.90;99.90;;;;;;5040371;28;20051;-88
2024/04/06 02:37:19;;;;;;;4.20;1.40;;;13.90;99.90;;;;;;5050528;28;20104;-89
2024/04/06 02:39:45;;;;;;;4.25;1.13;;;13.90;99.90;;;;;;5032379;28;20053;-88
2024/04/06 02:42:10;;;;;;;4.15;1.35;;;13.90;99.90;;;;;;5046876;28;20064;-89
2024/04/06 02:44:36;;;;;;;4.28;1.08;;;13.90;99.90;;;;;;5015176;28;20029;-89
2024/04/06 02:47:02;;;;;;;4.38;0.98;;;13.90;99.90;;;;;;5023026;28;20029;-90
2024/04/06 02:49:28;;;;;;;4.72;1.40;;;13.90;99.90;;;;;;5052041;28;20536;-88
2024/04/06 02:51:53;;;;;;;2.30;0.80;;;13.90;99.90;;;;;;5052029;28;20032;-90
2024/04/06 02:54:19;;;;;;;3.58;1.35;;;13.80;99.90;;;;;;5034902;28;20477;-89
2024/04/06 02:56:44;;;;;;;7.53;1.40;;;13.80;99.90;;;;;;5052409;28;20055;-88
2024/04/06 02:59:10;;;;;;;5.35;1.17;;;13.80;99.90;;;;;;5052302;28;20366;-89
2024/04/06 03:01:36;;;;;;;4.15;1.38;;;13.80;99.90;;;;;;5052065;28;20025;-87
2024/04/06 03:04:01;;;;;;;3.45;1.20;;;13.80;99.90;;;;;;5036012;28;20116;-89
2024/04/06 03:06:27;;;;;;;7.40;1.20;;;13.70;99.90;;;;;;5041751;28;20031;-89
2024/04/06 03:08:53;;;;;;;7.78;1.48;;;13.60;99.90;;;;;;5058478;28;20455;-90
2024/04/06 03:11:19;;;;;;;3.22;1.27;;;13.60;99.90;;;;;;5041175;28;20033;-89
2024/04/06 03:13:44;;;;;;;3.28;1.40;;;13.50;99.90;;;;;;5040991;28;20480;-88
2024/04/06 03:16:10;;;;;;;4.50;1.42;;;13.50;99.90;;;;;;5040708;28;20025;-89
2024/04/06 03:18:35;;;;;;;5.07;1.25;;;13.40;99.90;;;;;;5039127;28;20512;-89
2024/04/06 03:21:04;;;;;;;4.68;1.85;;;13.30;99.90;;;;;;5046092;28;20090;-89
2024/04/06 03:23:29;;;;;;;3.65;1.40;;;13.30;99.90;;;;;;5041085;28;20021;-87
2024/04/06 03:25:55;;;;;;;2.92;1.05;;;13.30;99.90;;;;;;5040836;28;20090;-89
2024/04/06 03:28:21;;;;;;;6.05;2.03;;;13.30;99.90;;;;;;5048949;28;20031;-88
2024/04/06 03:30:47;;;;;;;3.03;1.13;;;13.20;99.90;;;;;;5058649;28;20103;-89
2024/04/06 03:33:12;;;;;;;24.02;1.83;;;13.20;99.90;;;;;;5058204;28;20112;-89
2024/04/06 03:35:38;;;;;;;4.78;1.10;;;13.20;99.90;;;;;;5058259;28;20390;-88
2024/04/06 03:38:03;;;;;;;6.82;1.60;;;13.10;99.90;;;;;;5058517;28;20029;-88
2024/04/06 03:40:29;;;;;;;4.82;1.67;;;13.10;99.90;;;;;;5039384;28;20060;-88
2024/04/06 03:42:59;;;;;;;5.75;1.38;;;13.00;99.90;;;;;;5038618;28;20033;-90
2024/04/06 03:45:26;;;;;;;2.97;1.20;;;13.00;99.90;;;;;;5038893;28;20026;-89
2024/04/06 03:47:52;;;;;;;4.03;1.52;;;12.90;99.90;;;;;;5053933;28;20032;-88
2024/04/06 03:50:18;;;;;;;4.70;1.40;;;12.90;99.90;;;;;;5058401;28;20098;-89
2024/04/06 03:52:44;;;;;;;3.15;1.45;;;12.90;99.90;;;;;;5057251;28;20028;-88
2024/04/06 03:55:10;;;;;;;5.03;1.92;;;12.90;99.90;;;;;;5058655;28;20502;-89
2024/04/06 03:57:36;;;;;;;4.32;1.55;;;12.90;99.90;;;;;;5058691;28;20025;-89
2024/04/06 04:00:08;;;;;;;2.60;1.15;;;12.80;99.90;;;;;;5058143;28;20095;-89
2024/04/06 04:02:34;;;;;;;8.43;2.88;;;12.80;99.90;;;;;;5061042;28;20048;-90
2024/04/06 04:04:59;;;;;;;4.47;1.77;;;12.80;99.90;;;;;;5058439;28;20063;-89
2024/04/06 04:07:25;;;;;;;5.43;2.08;;;12.80;99.90;;;;;;5047345;28;20049;-87
2024/04/06 04:09:50;;;;;;;5.90;2.25;;;12.70;99.90;;;;;;5053511;28;20083;-89
2024/04/06 04:12:17;;;;;;;6.25;1.85;;;12.70;99.90;;;;;;5058433;28;20487;-89
2024/04/06 04:14:42;;;;;;;5.28;2.13;;;12.70;99.90;;;;;;5052222;28;20013;-88
2024/04/06 04:17:08;;;;;;;6.28;2.50;;;12.60;99.90;;;;;;5052609;28;20063;-89
2024/04/06 04:19:33;;;;;;;5.72;2.50;;;12.60;99.90;;;;;;5046304;28;20058;-89
2024/04/06 04:21:59;;;;;;;6.30;2.95;;;12.60;99.90;;;;;;5040064;28;20041;-89
2024/04/06 04:24:24;;;;;;;7.13;3.20;;;12.50;99.90;;;;;;5047140;28;20036;-88
2024/04/06 04:26:50;;;;;;;6.93;2.78;;;12.60;99.90;;;;;;5048895;28;20025;-89
2024/04/06 04:29:15;;;;;;;8.57;3.15;;;12.50;99.90;;;;;;5035184;28;20022;-88
2024/04/06 04:31:41;;;;;;;6.05;3.13;;;12.60;99.90;;;;;;5034982;28;20025;-88
2024/04/06 04:34:06;;;;;;;5.25;2.80;;;12.60;99.90;;;;;;5041163;28;20033;-89
2024/04/06 04:36:32;;;;;;;5.38;2.92;;;12.60;99.90;;;;;;5054717;28;20025;-89
2024/04/06 04:38:58;;;;;;;6.50;2.63;;;12.60;99.90;;;;;;5054597;28;20504;-88
2024/04/06 04:41:23;;;;;;;5.60;3.42;;;12.60;99.90;;;;;;5044010;28;20401;-89
2024/04/06 04:43:49;;;;;;;5.15;3.10;;;12.60;99.90;;;;;;5034997;28;20029;-89
2024/04/06 04:46:14;;;;;;;4.78;3.05;;;12.60;99.90;;;;;;5036163;28;20029;-90
2024/04/06 04:49:02;;;;;;;5.75;2.88;;;12.60;99.90;;;;;;5054433;28;20392;-89
2024/04/06 04:51:28;;;;;;;7.82;3.40;;;12.60;99.90;;;;;;5054668;28;20021;-89
2024/04/06 04:53:54;;;;;;;7.53;3.88;;;12.60;99.90;;;;;;5054133;28;20535;-89
2024/04/06 04:56:20;;;;;;;7.85;4.03;;;12.60;99.90;;;;;;5034726;28;20029;-89
2024/04/06 04:58:47;;;;;;;7.85;4.47;;;12.60;99.90;;;;;;5034901;28;20030;-89
2024/04/06 05:01:13;;;;;;;7.20;4.53;;;12.60;99.90;;;;;;5034089;28;20029;-89
2024/04/06 05:03:38;;;;;;;6.78;4.03;;;12.60;99.90;;;;;;5048075;28;20029;-89
2024/04/06 05:06:04;;;;;;;10.10;4.18;;;12.50;99.90;;;;;;5053966;28;20021;-90
2024/04/06 05:08:30;;;;;;;9.85;4.63;;;12.50;99.90;;;;;;5053650;28;20071;-88
2024/04/06 05:10:56;;;;;;;7.30;4.50;;;12.50;99.90;;;;;;5053812;28;20389;-89
2024/04/06 05:13:22;;;;;;;9.40;4.63;;;12.50;99.90;;;;;;5054290;28;20032;-88
2024/04/06 05:15:49;;;;;;;8.50;4.88;;;12.50;99.90;;;;;;5053896;28;20066;-89
2024/04/06 05:18:15;;;;;;;10.65;4.38;;;12.60;99.90;;;;;;5046937;28;20026;-90
2024/04/06 05:20:49;;;;;;;8.30;4.18;;;12.60;99.90;;;;;;5040961;28;20536;-89
2024/04/06 05:23:14;;;;;;;8.82;3.90;;;12.70;99.90;;;;;;5035131;28;20034;-90
2024/04/06 05:25:40;;;;;;;10.43;4.03;;;12.70;99.90;;;;;;5035218;28;20031;-89
2024/04/06 05:28:05;;;;;;;4.88;3.38;;;12.70;99.90;;;;;;5049785;28;20036;-89
2024/04/06 05:30:31;;;;;;;6.82;3.88;;;12.70;99.90;;;;;;5041025;28;20022;-87
2024/04/06 05:32:57;;;;;;;6.78;3.15;;;12.70;99.90;;;;;;5049747;28;20056;-88
2024/04/06 05:35:22;;;;;;;6.88;3.33;;;12.70;99.90;;;;;;5054911;28;20029;-88
2024/04/06 05:37:48;;;;;;;4.40;3.13;;;12.70;99.90;;;;;;5039155;28;20033;-88
2024/04/06 05:40:13;;;;;;;7.82;3.63;;;12.80;99.90;;;;;;5042683;28;20028;-89
2024/04/06 05:42:39;;;;;;;8.60;3.20;;;12.70;99.90;;;;;;5035649;28;20086;-88
2024/04/06 05:45:04;;;;;;;5.38;3.30;;;12.80;99.90;;;;;;5053165;28;20021;-89
2024/04/06 05:47:30;;;;;;;5.47;3.08;;;12.80;99.90;;;;;;5053589;28;20021;-89
2024/04/06 05:49:56;;;;;;;6.82;3.10;;;12.80;99.90;;;;;;5028037;28;20477;-89
2024/04/06 05:52:21;;;;;;;5.35;1.92;;;12.80;99.90;;;;;;5022765;28;20048;-88
2024/04/06 05:54:47;;;;;;;6.28;2.50;;;12.90;99.90;;;;;;5035438;28;20047;-89
2024/04/06 05:57:13;;;;;;;6.25;2.10;;;12.90;99.90;;;;;;5029462;28;20472;-89
2024/04/06 05:59:38;;;;;;;7.82;2.50;;;12.90;99.90;;;;;;5020220;28;20132;-88
2024/04/06 06:02:04;;;;;;;7.45;3.08;;;12.90;99.90;;;;;;5035202;28;20033;-88
2024/04/06 06:04:29;;;;;;;3.80;1.95;;;13.00;99.90;;;;;;5053725;28;20104;-89
2024/04/06 06:06:55;;;;;;;5.30;2.58;;;13.00;99.90;;;;;;5049465;28;20021;-88
2024/04/06 06:09:20;;;;;;;3.88;2.17;;;13.10;99.90;;;;;;5035897;28;20052;-89
2024/04/06 06:11:46;;;;;;;5.68;2.30;;;13.10;99.90;;;;;;5053850;28;20033;-87
2024/04/06 06:14:12;;;;;;;5.63;2.10;;;13.10;99.90;;;;;;5049156;28;20024;-90
2024/04/06 06:16:37;;;;;;;4.28;1.90;;;13.20;99.90;;;;;;5033130;28;20024;-89
2024/04/06 06:19:03;;;;;;;4.88;1.88;;;13.30;99.90;;;;;;5050198;28;20526;-90
2024/04/06 06:21:30;;;;;;;3.83;1.63;;;13.30;99.90;;;;;;5045587;28;20717;-89
2024/04/06 06:23:56;;;;;;;4.32;1.90;;;13.40;99.90;;;;;;5032979;28;20060;-88
2024/04/06 06:26:22;;;;;;;6.00;1.83;;;13.50;99.90;;;;;;5033072;28;20026;-89
2024/04/06 06:28:47;;;;;;;7.10;2.05;;;13.60;99.90;;;;;;5051516;28;20031;-89
2024/04/06 06:31:23;;;;;;;5.25;1.27;;;13.60;99.90;;;;;;5055442;28;20100;-90
2024/04/06 06:33:49;;;;;;;4.88;1.55;;;13.70;99.90;;;;;;5048422;28;20029;-89
2024/04/06 06:36:17;;;;;;;5.10;1.70;;;13.90;99.90;;;;;;5052497;28;20025;-89
2024/04/06 06:38:44;;;;;;;6.13;1.77;;;13.90;99.90;;;;;;5052715;28;20505;-89
2024/04/06 06:41:10;;;;;;;6.63;1.70;;;14.00;99.90;;;;;;5019051;28;20463;-89
2024/04/06 06:43:35;;;;;;;7.38;1.80;;;14.10;99.90;;;;;;5052557;28;20040;-89
2024/04/06 06:46:01;;;;;;;5.32;1.58;;;14.20;99.90;;;;;;5052092;28;20404;-89
2024/04/06 06:48:27;;;;;;;4.32;1.35;;;14.30;99.90;;;;;;5052766;28;20025;-90
2024/04/06 06:50:52;;;;;;;4.47;1.50;;;14.40;99.90;;;;;;5037380;28;20473;-89
2024/04/06 06:53:18;;;;;;;3.88;1.67;;;14.50;99.90;;;;;;5015212;28;20250;-89
2024/04/06 06:55:43;;;;;;;5.30;1.55;;;14.60;99.90;;;;;;5015048;28;20029;-90
2024/04/06 06:58:09;;;;;;;4.22;1.52;;;14.70;99.90;;;;;;5014371;28;20022;-89
2024/04/06 07:00:36;;;;;;;5.40;1.58;;;14.80;99.90;;;;;;5045021;28;20124;-90
2024/04/06 07:03:02;;;;;;;4.65;1.00;;;14.90;99.90;;;;;;5045360;28;20069;-89
2024/04/06 07:05:28;;;;;;;3.47;1.10;;;15.00;99.90;;;;;;5033115;28;20366;-90
2024/04/06 07:07:55;;;;;;;4.82;1.77;;;15.10;99.90;;;;;;5043512;28;20045;-90
2024/04/06 07:10:21;;;;;;;4.53;1.40;;;15.20;99.90;;;;;;5052326;28;20109;-89
2024/04/06 07:12:47;;;;;;;3.20;1.00;;;15.30;99.90;;;;;;5052062;28;20060;-90
2024/04/06 07:15:12;;;;;;;5.05;1.48;;;15.40;99.90;;;;;;5050343;28;20104;-89
2024/04/06 07:17:38;;;;;;;4.63;1.10;;;15.60;99.90;;;;;;5014892;28;20029;-90
2024/04/06 07:20:05;;;;;;;5.80;1.35;;;15.70;99.90;;;;;;5031893;28;20025;-88
2024/04/06 07:22:30;;;;;;;3.63;1.30;;;15.80;99.90;;;;;;5032514;28;20461;-90
2024/04/06 07:24:56;;;;;;;2.25;0.90;;;15.90;99.90;;;;;;5044981;28;20033;-90
2024/04/06 07:27:21;;;;;;;4.32;1.00;;;16.00;99.90;;;;;;5051840;28;20105;-90
2024/04/06 07:29:48;;;;;;;2.42;0.90;;;16.10;99.90;;;;;;5033779;28;20021;-89
2024/04/06 07:32:13;;;;;;;5.35;1.30;;;16.30;99.90;;;;;;5038331;28;20024;-90
2024/04/06 07:34:39;;;;;;;3.95;1.08;;;16.40;99.90;;;;;;5051878;28;20473;-90
2024/04/06 07:37:05;;;;;;;2.63;1.17;;;16.50;99.90;;;;;;5021157;28;20030;-89
2024/04/06 07:39:30;;;;;;;3.50;0.80;;;16.60;99.90;;;;;;5032550;28;20477;-89
2024/04/06 07:41:56;;;;;;;4.85;1.00;;;16.70;99.90;;;;;;5052029;28;20039;-90
2024/04/06 07:44:21;;;;;;;4.93;0.90;;;16.80;99.90;;;;;;5051906;28;20021;-88
2024/04/06 07:46:47;;;;;;;3.60;0.80;;;16.90;99.90;;;;;;5051787;28;20477;-90
2024/04/06 07:49:13;;;;;;;2.15;0.80;;;17.00;99.90;;;;;;5036981;28;20810;-89
2024/04/06 07:51:41;;;;;;;3.65;0.85;;;17.10;99.90;;;;;;5032407;28;20022;-90
2024/04/06 07:54:07;;;;;;;4.22;0.70;;;17.20;99.90;;;;;;5041067;28;20079;-89
2024/04/06 07:56:33;;;;;;;2.55;0.75;;;17.30;99.90;;;;;;5055645;28;20021;-90
2024/04/06 07:58:59;;;;;;;3.15;0.90;;;17.40;99.90;;;;;;5055604;28;20530;-89
2024/04/06 08:01:26;;;;;;;4.88;1.00;;;17.40;99.90;;;;;;5055303;28;20056;-90
2024/04/06 08:03:51;;;;;;;5.22;0.70;;;17.50;99.90;;;;;;5035882;28;20033;-90
2024/04/06 08:06:18;;;;;;;4.70;1.00;;;17.50;99.90;;;;;;5018278;28;20035;-89
2024/04/06 08:08:44;;;;;;;3.33;0.70;;;17.60;99.90;;;;;;5052956;28;20056;-90
2024/04/06 08:11:11;;;;;;;2.70;0.70;;;17.70;99.90;;;;;;5054996;28;20029;-89
2024/04/06 08:13:37;;;;;;;6.03;0.80;;;17.80;99.90;;;;;;5035477;28;20159;-89
2024/04/06 08:16:03;;;;;;;4.38;0.60;;;17.90;99.90;;;;;;5035208;28;20053;-89
2024/04/06 08:18:28;;;;;;;5.63;1.00;;;18.00;99.90;;;;;;5043438;28;20037;-88
2024/04/06 08:20:54;;;;;;;2.53;0.70;;;18.10;99.90;;;;;;5037148;28;20021;-89
2024/04/06 08:23:19;;;;;;;2.60;0.77;;;18.20;99.90;;;;;;5037389;28;20037;-89
2024/04/06 08:25:45;;;;;;;2.72;0.85;;;18.20;99.90;;;;;;5054626;28;20021;-89
2024/04/06 08:28:11;;;;;;;3.20;0.60;;;18.30;99.90;;;;;;5057933;28;20028;-89
2024/04/06 08:30:38;;;;;;;3.78;0.88;;;18.40;99.90;;;;;;5037726;28;20060;-89
2024/04/06 08:33:05;;;;;;;4.70;1.02;;;18.50;99.90;;;;;;5037241;28;20028;-90
2024/04/06 08:35:32;;;;;;;3.83;0.80;;;18.60;99.90;;;;;;5054872;28;20538;-90
2024/04/06 08:37:57;;;;;;;3.70;0.77;;;18.60;99.90;;;;;;5044885;28;20057;-89
2024/04/06 08:40:23;;;;;;;3.90;1.00;;;18.70;99.90;;;;;;5043284;28;20190;-89
2024/04/06 08:42:49;;;;;;;2.85;0.70;;;18.80;99.90;;;;;;5054726;28;20033;-90
2024/04/06 08:45:18;;;;;;;2.92;0.80;;;18.90;99.90;;;;;;5054785;28;20017;-89
2024/04/06 08:47:43;;;;;;;2.63;0.63;;;19.00;99.90;;;;;;5043316;28;20092;-90
2024/04/06 08:50:10;;;;;;;3.90;0.57;;;19.10;99.90;;;;;;5054671;28;20029;-89
2024/04/06 08:52:36;;;;;;;7.15;0.80;;;19.20;99.90;;;;;;5037026;28;20552;-88
2024/04/06 08:55:03;;;;;;;2.22;0.50;;;19.20;99.90;;;;;;5042040;28;20378;-89
2024/04/06 08:57:31;;;;;;;2.63;0.57;;;19.30;99.90;;;;;;5034621;28;20439;-89
2024/04/06 08:59:58;;;;;;;5.75;0.60;;;19.30;99.90;;;;;;5034711;28;20370;-89
2024/04/06 09:02:24;;;;;;;1.83;0.60;;;19.40;99.90;;;;;;5034462;28;20095;-89
2024/04/06 09:04:49;;;;;;;3.17;0.50;;;19.50;99.90;;;;;;5045930;28;20021;-89
2024/04/06 09:07:15;;;;;;;1.45;0.50;;;19.60;99.90;;;;;;5043859;28;20032;-90
2024/04/06 09:09:41;;;;;;;2.58;0.68;;;19.60;99.90;;;;;;5035891;28;20060;-89
2024/04/06 09:12:07;;;;;;;3.35;0.50;;;19.80;99.90;;;;;;5053721;28;20029;-90
2024/04/06 09:14:38;;;;;;;4.10;1.02;;;19.90;99.90;;;;;;5035404;28;20032;-89
2024/04/06 09:17:04;;;;;;;3.20;0.90;;;20.10;99.90;;;;;;5030251;28;20439;-89
2024/04/06 09:19:29;;;;;;;1.85;0.45;;;20.30;99.90;;;;;;5019734;28;20105;-89
2024/04/06 09:21:56;;;;;;;2.42;0.60;;;20.40;99.90;;;;;;5043213;28;20400;-89
2024/04/06 09:24:28;;;;;;;1.27;0.40;;;20.50;99.90;;;;;;5047813;28;20404;-89
2024/04/06 09:27:13;;;;;;;4.28;0.73;;;20.70;99.90;;;;;;5033915;28;20052;-89
2024/04/06 09:29:46;;;;;;;19.58;0.80;;;20.90;99.90;;;;;;5046068;28;20037;-89
2024/04/06 09:32:14;;;;;;;2.13;0.45;;;20.90;99.90;;;;;;5053656;28;20467;-90
2024/04/06 09:34:49;;;;;;;3.88;0.40;;;21.00;99.90;;;;;;5053699;28;20055;-90
2024/04/06 09:37:21;;;;;;;2.38;0.40;;;21.00;99.90;;;;;;5053386;28;20071;-90
2024/04/06 09:39:47;;;;;;;2.15;0.43;;;21.00;99.90;;;;;;5053659;28;20029;-89
2024/04/06 09:42:14;;;;;;;3.17;0.50;;;21.00;99.90;;;;;;5054076;28;20041;-88
2024/04/06 09:44:42;;;;;;;3.28;0.50;;;21.10;99.90;;;;;;5051966;28;20029;-89
2024/04/06 09:47:10;;;;;;;1.48;0.50;;;21.20;99.90;;;;;;5039505;28;20473;-90
2024/04/06 09:49:38;;;;;;;1.38;0.43;;;21.20;99.90;;;;;;5053170;28;20048;-89
2024/04/06 09:52:04;;;;;;;4.10;0.50;;;21.30;99.90;;;;;;5053485;28;20031;-89
2024/04/06 09:54:31;;;;;;;3.10;0.43;;;21.30;99.90;;;;;;5053709;28;20063;-89
2024/04/06 09:56:58;;;;;;;2.33;0.40;;;21.40;99.90;;;;;;5033505;28;20029;-89
2024/04/06 09:59:27;;;;;;;1.90;0.40;;;21.50;99.90;;;;;;5033605;28;20026;-90
2024/04/06 10:01:53;;;;;;;3.78;0.30;;;21.60;99.90;;;;;;5032959;28;20034;-90
2024/04/06 10:04:36;;;;;;;2.60;0.40;;;21.70;99.90;;;;;;5033255;28;20175;-89
2024/04/06 10:07:04;;;;;;;2.53;0.50;;;21.70;99.90;;;;;;5033154;28;20029;-90
2024/04/06 10:09:31;;;;;;;5.10;0.68;;;21.80;99.90;;;;;;5033256;28;20053;-89
2024/04/06 10:12:02;;;;;;;2.92;0.40;;;21.80;99.90;;;;;;5023566;28;20030;-88
2024/04/06 10:14:29;;;;;;;2.00;0.30;;;21.90;99.90;;;;;;5029653;28;20028;-89
2024/04/06 10:17:08;;;;;;;6.00;0.43;;;21.90;99.90;;;;;;5036643;28;20107;-89
2024/04/06 10:19:40;;;;;;;1.23;0.40;;;22.00;99.90;;;;;;5053188;28;20028;-90
2024/04/06 10:22:06;;;;;;;4.15;0.43;;;22.10;99.90;;;;;;5052575;28;20033;-90
2024/04/06 10:24:34;;;;;;;1.27;0.40;;;22.20;99.90;;;;;;5052837;28;20025;-90
2024/04/06 10:27:00;;;;;;;4.65;0.40;;;22.30;99.90;;;;;;5052244;28;20017;-89
2024/04/06 10:29:27;;;;;;;2.78;0.50;;;22.40;99.90;;;;;;5044487;28;20067;-89
2024/04/06 10:31:53;;;;;;;2.95;0.40;;;22.40;99.90;;;;;;5032748;28;20048;-89
2024/04/06 10:34:19;;;;;;;1.77;0.40;;;22.50;99.70;;;;;;5032915;28;20026;-89
2024/04/06 10:36:46;;;;;;;1.33;0.30;;;22.50;98.80;;;;;;5052154;28;20108;-89
2024/04/06 10:39:11;;;;;;;1.20;0.38;;;22.50;98.40;;;;;;5052158;28;20029;-89
2024/04/06 10:41:42;;;;;;;4.43;0.50;;;22.50;98.10;;;;;;5034678;28;20040;-89
2024/04/06 10:44:08;;;;;;;1.98;0.40;;;22.60;97.40;;;;;;5034092;28;20021;-90
2024/04/06 10:46:34;;;;;;;2.78;0.50;;;22.60;97.10;;;;;;5035963;28;20064;-89
2024/04/06 10:49:00;;;;;;;3.20;0.40;;;22.70;97.20;;;;;;5032467;28;20394;-90
2024/04/06 10:51:26;;;;;;;1.77;0.40;;;22.90;96.60;;;;;;5041337;28;20025;-90
2024/04/06 10:53:53;;;;;;;2.97;0.30;;;22.90;96.00;;;;;;5052432;28;20061;-90
2024/04/06 10:56:19;;;;;;;1.58;0.47;;;22.90;95.50;;;;;;5052329;28;20024;-89
2024/04/06 10:58:46;;;;;;;1.05;0.22;;;23.00;95.20;;;;;;5037602;28;20443;-89
2024/04/06 11:01:15;;;;;;;2.17;0.28;;;23.00;94.30;;;;;;5045972;28;20032;-90
2024/04/06 11:03:41;;;;;;;1.73;0.25;;;23.10;93.70;;;;;;5032398;28;20033;-89
2024/04/06 11:06:07;;;;;;;1.50;0.30;;;23.10;93.90;;;;;;5032534;28;20496;-89
2024/04/06 11:08:33;;;;;;;2.55;0.30;;;23.10;94.20;;;;;;5016283;28;20050;-90
2024/04/06 11:11:00;;;;;;;3.60;0.30;;;23.20;93.60;;;;;;5039144;28;20030;-88
2024/04/06 11:13:25;;;;;;;4.13;0.40;;;23.10;92.70;;;;;;5032217;28;20033;-90
2024/04/06 11:15:51;;;;;;;1.92;0.32;;;23.10;92.40;;;;;;5042843;28;20028;-90
2024/04/06 11:18:17;;;;;;;1.50;0.35;;;23.20;92.70;;;;;;5052117;28;20499;-90
2024/04/06 11:20:43;;;;;;;6.05;0.55;;;23.30;92.00;;;;;;5052182;28;20025;-89
2024/04/06 11:23:19;;;;;;;2.88;0.40;;;23.20;91.20;;;;;;5051603;28;20044;-90
2024/04/06 11:25:45;;;;;;;1.40;0.28;;;23.30;91.40;;;;;;5052159;28;20052;-90
2024/04/06 11:28:10;;;;;;;2.58;0.30;;;23.30;90.70;;;;;;5055800;28;20056;-91
2024/04/06 11:30:37;;;;;;;1.40;0.30;;;23.30;89.80;;;;;;5054861;28;20055;-91
2024/04/06 11:33:03;;;;;;;6.25;0.63;;;23.30;88.50;;;;;;5055880;28;20028;-90
2024/04/06 11:35:30;;;;;;;2.42;0.40;;;23.40;88.80;;;;;;5056194;28;20124;-89
2024/04/06 11:37:56;;;;;;;1.50;0.30;;;23.40;89.90;;;;;;5055609;28;20540;-90
2024/04/06 11:40:22;;;;;;;1.50;0.30;;;23.50;90.40;;;;;;5055580;28;20056;-90
2024/04/06 11:42:47;;;;;;;1.83;0.30;;;23.60;90.10;;;;;;5046747;28;20073;-90
2024/04/06 11:45:13;;;;;;;1.88;0.25;;;23.70;89.00;;;;;;5050954;28;20032;-90
2024/04/06 11:47:41;;;;;;;2.45;0.30;;;23.80;88.60;;;;;;5055769;28;20051;-89
2024/04/06 11:50:06;;;;;;;2.25;0.20;;;23.80;88.40;;;;;;5055553;28;20032;-90
2024/04/06 11:52:32;;;;;;;4.63;0.40;;;24.00;88.50;;;;;;5038716;28;20021;-90
2024/04/06 11:54:57;;;;;;;1.60;0.20;;;24.10;88.90;;;;;;5042293;28;20025;-90
2024/04/06 11:57:23;;;;;;;2.15;0.30;;;24.20;87.10;;;;;;5018340;28;20146;-90
2024/04/06 11:59:48;;;;;;;1.25;0.30;;;24.20;85.90;;;;;;5035889;28;20037;-90
2024/04/06 12:02:14;;;;;;;1.55;0.30;;;24.20;85.20;;;;;;5035164;28;20033;-90
2024/04/06 12:04:40;;;;;;;3.72;0.30;;;24.20;85.20;;;;;;5053678;28;20708;-90
2024/04/06 12:07:06;;;;;;;2.25;0.30;;;24.20;85.30;;;;;;5055625;28;20036;-90
2024/04/06 12:09:32;;;;;;;2.33;0.50;;;24.30;83.90;;;;;;5054669;28;20049;-89
2024/04/06 12:11:57;;;;;;;1.35;0.30;;;24.40;82.70;;;;;;5017667;28;20371;-90
2024/04/06 12:14:23;;;;;;;1.45;0.30;;;24.40;83.00;;;;;;5036230;28;20017;-89
2024/04/06 12:16:48;;;;;;;1.60;0.30;;;24.50;82.90;;;;;;5035485;28;20481;-90
2024/04/06 12:19:15;;;;;;;2.80;0.43;;;24.60;81.70;;;;;;5035162;28;20035;-89
2024/04/06 12:21:41;;;;;;;2.08;0.32;;;24.70;81.10;;;;;;5035657;28;20037;-90
2024/04/06 12:24:06;;;;;;;1.33;0.30;;;24.80;80.50;;;;;;5041033;28;20477;-89
2024/04/06 12:26:32;;;;;;;3.80;0.50;;;24.90;80.40;;;;;;5045776;28;20030;-90
2024/04/06 12:28:58;;;;;;;1.20;0.30;;;25.00;79.20;;;;;;5039987;28;20052;-90
2024/04/06 12:31:24;;;;;;;2.30;0.43;;;25.10;79.10;;;;;;5055141;28;20061;-90
2024/04/06 12:33:49;;;;;;;0.65;0.22;;;25.10;79.00;;;;;;5055071;28;20029;-90
2024/04/06 12:36:15;;;;;;;1.25;0.25;;;25.10;78.00;;;;;;5040645;28;20100;-90
2024/04/06 12:38:40;;;;;;;2.00;0.30;;;25.10;76.50;;;;;;5033896;28;20030;-89
2024/04/06 12:41:06;;;;;;;1.00;0.25;;;25.10;75.90;;;;;;5047986;28;20025;-89